Time;durP1;ratioP1;P1;durP2;ratioP2;P2;SDS_P1;SDS_P2;PMS_P1;PMS_P2;Temp;Humidity;BMP_temperature;BMP_pressure;BME280_temperature;BME280_humidity;BME280_pressure;Samples;Min_cycle;Max_cycle;Signal;HPM_P1;HPM_P2
2021/01/06 00:00:28;;;;;;;14.75;10.05;;;3.10;99.90;;;;;;5033294;28;20724;-88
2021/01/06 00:02:54;;;;;;;22.63;13.18;;;3.10;99.90;;;;;;5033698;28;20289;-85
2021/01/06 00:05:24;;;;;;;21.50;11.70;;;3.10;99.90;;;;;;5031898;28;20300;-90
2021/01/06 00:07:50;;;;;;;18.65;11.38;;;3.00;99.90;;;;;;5033365;28;20207;-84
2021/01/06 00:10:19;;;;;;;22.25;10.95;;;3.10;99.90;;;;;;5032979;28;20653;-86
2021/01/06 00:12:46;;;;;;;18.88;11.90;;;3.10;99.90;;;;;;5033651;28;20547;-88
2021/01/06 00:15:15;;;;;;;17.05;10.95;;;3.00;99.90;;;;;;5032563;28;20284;-90
2021/01/06 00:17:43;;;;;;;25.35;13.68;;;3.00;99.90;;;;;;5033537;28;20761;-88
2021/01/06 00:20:11;;;;;;;22.75;13.38;;;3.00;99.90;;;;;;5033552;28;20558;-84
2021/01/06 00:22:39;;;;;;;18.98;11.88;;;3.10;99.90;;;;;;5033688;28;20207;-85
2021/01/06 00:25:07;;;;;;;21.95;11.07;;;3.20;99.90;;;;;;5033204;28;20297;-88
2021/01/06 00:27:33;;;;;;;17.52;11.95;;;3.10;99.90;;;;;;5033495;28;20301;-88
2021/01/06 00:30:00;;;;;;;20.83;11.65;;;3.10;99.90;;;;;;5031896;28;20207;-88
2021/01/06 00:32:26;;;;;;;18.77;11.23;;;3.10;99.90;;;;;;5033263;28;20679;-88
2021/01/06 00:34:53;;;;;;;18.52;11.73;;;3.10;99.90;;;;;;5016944;28;20258;-89
2021/01/06 00:37:20;;;;;;;16.10;10.30;;;3.10;99.90;;;;;;5013377;28;20241;-89
2021/01/06 00:39:47;;;;;;;16.95;11.65;;;3.10;99.90;;;;;;5013564;28;20208;-88
2021/01/06 00:42:13;;;;;;;18.65;11.02;;;3.10;99.90;;;;;;5013518;28;20291;-89
2021/01/06 00:44:39;;;;;;;21.20;11.32;;;3.10;99.90;;;;;;5012286;28;20298;-88
2021/01/06 00:47:06;;;;;;;19.15;11.52;;;3.00;99.90;;;;;;5013505;28;20207;-87
2021/01/06 00:49:35;;;;;;;17.25;11.55;;;3.10;99.90;;;;;;5013616;28;20294;-87
2021/01/06 00:52:02;;;;;;;17.80;11.45;;;3.10;99.90;;;;;;5013394;28;20269;-87
2021/01/06 00:54:29;;;;;;;13.25;9.63;;;3.00;99.90;;;;;;5013571;28;20636;-89
2021/01/06 00:56:55;;;;;;;18.95;10.85;;;3.00;99.90;;;;;;5013032;28;20299;-88
2021/01/06 00:59:21;;;;;;;17.85;10.48;;;3.00;99.90;;;;;;5011925;28;20326;-87
2021/01/06 01:01:48;;;;;;;18.02;10.50;;;3.00;99.90;;;;;;5012882;28;20289;-86
2021/01/06 01:04:14;;;;;;;18.35;11.90;;;2.90;99.90;;;;;;5024582;28;20202;-90
2021/01/06 01:06:41;;;;;;;19.83;12.45;;;2.90;99.90;;;;;;5033018;28;20289;-86
2021/01/06 01:09:08;;;;;;;20.42;11.70;;;3.00;99.90;;;;;;5033054;28;20207;-89
2021/01/06 01:11:38;;;;;;;12.50;9.82;;;3.00;99.90;;;;;;5033776;28;20322;-90
2021/01/06 01:14:04;;;;;;;18.95;11.75;;;3.00;99.90;;;;;;5032006;28;20242;-92
2021/01/06 01:16:32;;;;;;;16.75;10.68;;;2.90;99.90;;;;;;5033134;28;20293;-86
2021/01/06 01:18:58;;;;;;;15.80;11.25;;;2.90;99.90;;;;;;5032798;28;20230;-88
2021/01/06 01:21:31;;;;;;;18.10;10.63;;;2.90;99.90;;;;;;5032897;28;20325;-87
2021/01/06 01:23:57;;;;;;;19.80;11.40;;;2.80;99.90;;;;;;5036404;28;20285;-84
2021/01/06 01:26:25;;;;;;;20.38;11.98;;;2.70;99.90;;;;;;5036318;28;20238;-86
2021/01/06 01:28:51;;;;;;;26.77;13.82;;;2.70;99.90;;;;;;5035566;28;20207;-88
2021/01/06 01:31:18;;;;;;;21.60;12.18;;;2.80;99.90;;;;;;5036326;28;20293;-86
2021/01/06 01:33:44;;;;;;;21.75;10.35;;;2.80;99.90;;;;;;5035055;28;20286;-86
2021/01/06 01:36:10;;;;;;;18.27;11.57;;;2.80;99.90;;;;;;5036114;28;20203;-87
2021/01/06 01:38:37;;;;;;;20.70;10.98;;;2.80;99.90;;;;;;5037138;28;20331;-87
2021/01/06 01:41:06;;;;;;;20.70;12.35;;;2.80;99.90;;;;;;5037944;28;20532;-86
2021/01/06 01:43:34;;;;;;;24.73;14.25;;;2.80;99.90;;;;;;5036160;28;20450;-86
2021/01/06 01:46:35;;;;;;;20.02;13.70;;;2.90;99.90;;;;;;5038737;28;20309;-86
2021/01/06 01:49:06;;;;;;;22.90;11.35;;;2.80;99.90;;;;;;5050152;28;20254;-84
2021/01/06 01:51:40;;;;;;;25.52;15.35;;;2.80;99.90;;;;;;5058288;28;20193;-90
2021/01/06 01:54:08;;;;;;;19.38;12.30;;;2.80;99.90;;;;;;5059317;28;20422;-84
2021/01/06 01:56:41;;;;;;;19.25;13.55;;;2.90;99.90;;;;;;5059424;28;20215;-84
2021/01/06 01:59:14;;;;;;;21.08;13.05;;;2.90;99.90;;;;;;5038438;28;20314;-89
2021/01/06 02:01:41;;;;;;;27.98;14.95;;;2.80;99.90;;;;;;5039469;28;20227;-88
2021/01/06 02:04:12;;;;;;;24.25;14.05;;;2.80;99.90;;;;;;5036038;28;20193;-86
2021/01/06 02:06:44;;;;;;;23.00;13.23;;;2.70;99.90;;;;;;5035120;28;20234;-88
2021/01/06 02:09:16;;;;;;;23.70;13.57;;;2.70;99.90;;;;;;5035373;28;20203;-89
2021/01/06 02:11:47;;;;;;;21.27;13.15;;;2.80;99.90;;;;;;5035640;28;20202;-88
2021/01/06 02:14:20;;;;;;;20.10;13.15;;;2.70;99.90;;;;;;5034248;28;20209;-87
2021/01/06 02:16:54;;;;;;;17.10;13.25;;;2.70;99.90;;;;;;5035658;28;20293;-83
2021/01/06 02:19:25;;;;;;;23.77;13.07;;;2.60;99.90;;;;;;5035361;28;20365;-86
2021/01/06 02:21:52;;;;;;;22.45;13.48;;;2.60;99.90;;;;;;5035467;28;20578;-85
2021/01/06 02:24:21;;;;;;;27.85;13.52;;;2.60;99.90;;;;;;5035119;28;20210;-88
2021/01/06 02:26:48;;;;;;;19.13;12.48;;;2.70;99.90;;;;;;5035974;28;20635;-88
2021/01/06 02:29:15;;;;;;;19.08;11.18;;;2.50;99.90;;;;;;5034025;28;20293;-86
2021/01/06 02:31:41;;;;;;;21.25;11.85;;;2.50;99.90;;;;;;5035287;28;20294;-85
2021/01/06 02:34:09;;;;;;;15.70;8.60;;;2.50;99.90;;;;;;5032540;28;20225;-87
2021/01/06 02:36:36;;;;;;;17.88;11.07;;;2.40;99.90;;;;;;5030370;28;20226;-87
2021/01/06 02:39:06;;;;;;;21.67;10.50;;;2.50;99.90;;;;;;5029986;28;20237;-83
2021/01/06 02:41:32;;;;;;;17.88;10.07;;;2.50;99.90;;;;;;5032741;28;20293;-86
2021/01/06 02:43:59;;;;;;;22.15;12.27;;;2.50;99.90;;;;;;5032000;28;20301;-85
2021/01/06 02:46:26;;;;;;;18.42;11.70;;;2.40;99.90;;;;;;5032821;28;20203;-85
2021/01/06 02:48:52;;;;;;;19.67;10.73;;;2.50;99.90;;;;;;5032711;28;20245;-86
2021/01/06 02:51:25;;;;;;;20.77;13.02;;;2.60;99.90;;;;;;5033237;28;20215;-86
2021/01/06 02:53:57;;;;;;;16.98;10.80;;;2.60;99.90;;;;;;5034650;28;20203;-88
2021/01/06 02:56:24;;;;;;;20.83;12.02;;;2.50;99.90;;;;;;5016454;28;20262;-85
2021/01/06 02:58:53;;;;;;;22.00;11.80;;;2.50;99.90;;;;;;5033548;28;20241;-86
2021/01/06 03:01:27;;;;;;;20.02;10.77;;;2.60;99.90;;;;;;5034696;28;20266;-87
2021/01/06 03:03:56;;;;;;;14.45;9.50;;;2.50;99.90;;;;;;5034668;28;20658;-87
2021/01/06 03:06:31;;;;;;;22.70;11.70;;;2.40;99.90;;;;;;5032473;28;20211;-85
2021/01/06 03:08:57;;;;;;;15.27;9.25;;;2.40;99.90;;;;;;5034792;28;20297;-87
2021/01/06 03:11:25;;;;;;;16.67;10.57;;;2.30;99.90;;;;;;5034630;28;20266;-84
2021/01/06 03:13:52;;;;;;;15.98;11.30;;;2.30;99.90;;;;;;5033589;28;20214;-87
2021/01/06 03:16:18;;;;;;;18.75;11.30;;;2.20;99.90;;;;;;5034682;28;20244;-87
2021/01/06 03:18:45;;;;;;;19.15;11.98;;;2.30;99.90;;;;;;5034304;28;20333;-85
2021/01/06 03:21:12;;;;;;;17.05;10.77;;;2.30;99.90;;;;;;5034265;28;20207;-87
2021/01/06 03:23:42;;;;;;;16.73;10.52;;;2.30;99.90;;;;;;5034373;28;20561;-84
2021/01/06 03:26:14;;;;;;;19.67;8.95;;;2.40;99.90;;;;;;5034356;28;20302;-86
2021/01/06 03:28:42;;;;;;;15.85;9.57;;;2.30;99.90;;;;;;5033096;28;20198;-86
2021/01/06 03:31:13;;;;;;;18.77;10.82;;;2.30;99.90;;;;;;5034241;28;20226;-84
2021/01/06 03:33:46;;;;;;;16.73;9.75;;;2.30;99.90;;;;;;5033210;28;20664;-86
2021/01/06 03:36:17;;;;;;;13.90;9.82;;;2.30;99.90;;;;;;5033894;28;20636;-85
2021/01/06 03:38:50;;;;;;;15.43;9.40;;;2.30;99.90;;;;;;5033800;28;20238;-84
2021/01/06 03:41:17;;;;;;;19.63;10.80;;;2.20;99.90;;;;;;5034287;28;20275;-85
2021/01/06 03:43:48;;;;;;;16.00;10.27;;;2.20;99.90;;;;;;5032546;28;20210;-83
2021/01/06 03:46:20;;;;;;;16.50;10.80;;;2.20;99.90;;;;;;5033273;28;20301;-84
2021/01/06 03:49:00;;;;;;;14.95;10.20;;;2.20;99.90;;;;;;5033774;28;20620;-84
2021/01/06 03:51:42;;;;;;;16.48;10.20;;;2.30;99.90;;;;;;5033534;28;20199;-85
2021/01/06 03:54:22;;;;;;;16.70;9.18;;;2.30;99.90;;;;;;5033969;28;20290;-85
2021/01/06 03:56:54;;;;;;;17.77;10.02;;;2.30;99.90;;;;;;5033473;28;20674;-84
2021/01/06 03:59:25;;;;;;;16.52;9.88;;;2.30;99.90;;;;;;5032293;28;20242;-83
2021/01/06 04:02:00;;;;;;;16.05;10.50;;;2.30;99.90;;;;;;5033771;28;20266;-87
2021/01/06 04:04:30;;;;;;;12.95;8.02;;;2.40;99.90;;;;;;5032546;28;20238;-87
2021/01/06 04:06:58;;;;;;;14.18;10.23;;;2.30;99.90;;;;;;5033458;28;20210;-84
2021/01/06 04:09:32;;;;;;;13.93;9.10;;;2.30;99.90;;;;;;5033691;28;20302;-86
2021/01/06 04:12:08;;;;;;;17.65;10.25;;;2.20;99.90;;;;;;5033496;28;20202;-83
2021/01/06 04:14:36;;;;;;;19.25;10.75;;;2.30;99.90;;;;;;5032273;28;20294;-85
2021/01/06 04:17:21;;;;;;;12.93;9.00;;;2.30;99.90;;;;;;5033784;28;20211;-84
2021/01/06 04:19:51;;;;;;;14.98;10.10;;;2.30;99.90;;;;;;5033001;28;20283;-88
2021/01/06 04:22:23;;;;;;;16.05;10.13;;;2.20;99.90;;;;;;5033241;28;20304;-84
2021/01/06 04:24:50;;;;;;;15.50;10.40;;;2.30;99.90;;;;;;5033301;28;20286;-85
2021/01/06 04:27:18;;;;;;;16.88;9.77;;;2.30;99.90;;;;;;5033274;28;20203;-85
2021/01/06 04:29:46;;;;;;;14.05;9.30;;;2.20;99.90;;;;;;5032419;28;20210;-87
2021/01/06 04:32:12;;;;;;;18.42;10.00;;;2.20;99.90;;;;;;5033265;28;20233;-83
2021/01/06 04:34:38;;;;;;;13.77;8.88;;;2.20;99.90;;;;;;5032157;28;20230;-87
2021/01/06 04:37:05;;;;;;;16.30;10.18;;;2.30;99.90;;;;;;5033041;28;20632;-86
2021/01/06 04:39:31;;;;;;;16.55;9.15;;;2.30;99.90;;;;;;5032973;28;20314;-86
2021/01/06 04:42:03;;;;;;;12.18;8.90;;;2.30;99.90;;;;;;5033548;28;20259;-86
2021/01/06 04:44:48;;;;;;;12.52;8.35;;;2.30;99.90;;;;;;5031768;28;20203;-89
2021/01/06 04:47:30;;;;;;;12.65;8.82;;;2.30;99.90;;;;;;5033445;28;20289;-87
2021/01/06 04:50:34;;;;;;;17.55;11.25;;;2.30;99.90;;;;;;5033071;28;20232;-88
2021/01/06 04:53:10;;;;;;;21.65;11.50;;;2.40;99.90;;;;;;5032898;28;20309;-86
2021/01/06 04:55:49;;;;;;;17.25;9.63;;;2.40;99.90;;;;;;5033011;28;20202;-83
2021/01/06 04:58:24;;;;;;;14.05;9.80;;;2.40;99.90;;;;;;5034535;28;20230;-87
2021/01/06 05:01:05;;;;;;;19.13;10.32;;;2.40;99.90;;;;;;5037662;28;20237;-87
2021/01/06 05:03:50;;;;;;;26.48;13.25;;;2.30;99.90;;;;;;5036535;28;20249;-88
2021/01/06 05:06:50;;;;;;;17.35;10.65;;;2.30;99.90;;;;;;5037282;28;20724;-86
2021/01/06 05:09:24;;;;;;;18.20;9.27;;;2.40;99.90;;;;;;5036934;28;20210;-88
2021/01/06 05:12:09;;;;;;;18.65;11.32;;;2.40;99.90;;;;;;5037377;28;20352;-88
2021/01/06 05:14:46;;;;;;;18.13;10.57;;;2.40;99.90;;;;;;5036065;28;20298;-86
2021/01/06 05:17:14;;;;;;;18.80;9.77;;;2.20;99.90;;;;;;5037273;28;20297;-88
2021/01/06 05:19:41;;;;;;;15.73;9.68;;;2.30;99.90;;;;;;5036753;28;20241;-86
2021/01/06 05:22:12;;;;;;;15.52;9.75;;;2.20;99.90;;;;;;5036965;28;20207;-88
2021/01/06 05:24:41;;;;;;;18.90;10.65;;;2.30;99.90;;;;;;5036906;28;20225;-88
2021/01/06 05:27:24;;;;;;;19.75;10.52;;;2.30;99.90;;;;;;5036768;28;20230;-86
2021/01/06 05:29:53;;;;;;;15.85;8.60;;;2.20;99.90;;;;;;5035680;28;20226;-87
2021/01/06 05:32:23;;;;;;;17.20;9.43;;;2.30;99.90;;;;;;5036727;28;20297;-87
2021/01/06 05:35:00;;;;;;;17.85;9.13;;;2.20;99.90;;;;;;5035593;28;20697;-87
2021/01/06 05:37:27;;;;;;;16.10;9.82;;;2.20;99.90;;;;;;5036162;28;20310;-88
2021/01/06 05:39:56;;;;;;;17.83;9.90;;;2.20;99.90;;;;;;5036089;28;20986;-87
2021/01/06 05:42:25;;;;;;;12.15;8.82;;;2.30;99.90;;;;;;5036592;28;20207;-88
2021/01/06 05:44:53;;;;;;;9.27;7.85;;;2.30;99.90;;;;;;5035057;28;20203;-85
2021/01/06 05:47:28;;;;;;;14.57;8.23;;;2.30;99.90;;;;;;5036529;28;20207;-85
2021/01/06 05:49:55;;;;;;;11.18;8.32;;;2.20;99.90;;;;;;5036062;28;20304;-87
2021/01/06 05:52:23;;;;;;;13.65;9.07;;;2.20;99.90;;;;;;5036381;28;20745;-84
2021/01/06 05:54:53;;;;;;;11.18;7.63;;;2.30;99.90;;;;;;5036376;28;20210;-86
2021/01/06 05:57:35;;;;;;;12.95;8.63;;;2.40;99.90;;;;;;5036010;28;20798;-87
2021/01/06 06:00:20;;;;;;;10.93;7.80;;;2.40;99.90;;;;;;5034279;28;20325;-85
2021/01/06 06:02:59;;;;;;;11.82;7.85;;;2.40;99.90;;;;;;5035097;28;20266;-88
2021/01/06 06:05:46;;;;;;;12.75;7.45;;;2.40;99.90;;;;;;5035659;28;20575;-87
2021/01/06 06:08:40;;;;;;;12.80;7.70;;;2.40;99.90;;;;;;5036679;28;20272;-85
2021/01/06 06:11:37;;;;;;;12.95;7.95;;;2.40;99.90;;;;;;5036986;28;20246;-88
2021/01/06 06:14:38;;;;;;;14.93;7.93;;;2.30;99.90;;;;;;5043645;28;20285;-87
2021/01/06 06:17:10;;;;;;;13.20;7.75;;;2.30;99.90;;;;;;5043655;28;20298;-87
2021/01/06 06:19:59;;;;;;;11.38;8.00;;;2.30;99.90;;;;;;5044524;28;20265;-86
2021/01/06 06:22:31;;;;;;;13.70;8.32;;;2.30;99.90;;;;;;5044071;28;20207;-86
2021/01/06 06:25:01;;;;;;;10.95;6.60;;;2.40;99.90;;;;;;5038394;28;20781;-86
2021/01/06 06:27:45;;;;;;;12.68;7.30;;;2.30;99.90;;;;;;5037589;28;20289;-86
2021/01/06 06:30:37;;;;;;;13.02;9.55;;;2.30;99.90;;;;;;5035824;28;20202;-85
2021/01/06 06:33:15;;;;;;;14.20;7.75;;;2.30;99.90;;;;;;5030221;28;20588;-85
2021/01/06 06:35:50;;;;;;;10.85;8.50;;;2.30;99.90;;;;;;5035430;28;20293;-86
2021/01/06 06:38:17;;;;;;;11.82;7.47;;;2.30;99.90;;;;;;5035216;28;20229;-86
2021/01/06 06:40:55;;;;;;;9.63;6.05;;;2.20;99.90;;;;;;5035518;28;20713;-87
2021/01/06 06:43:39;;;;;;;10.90;7.80;;;2.30;99.90;;;;;;5034357;28;20293;-85
2021/01/06 06:46:17;;;;;;;12.50;7.45;;;2.30;99.90;;;;;;5035540;28;20214;-87
2021/01/06 06:48:59;;;;;;;11.20;7.50;;;2.30;99.90;;;;;;5035634;28;20234;-86
2021/01/06 06:51:31;;;;;;;13.93;9.23;;;2.30;99.90;;;;;;5035161;28;20294;-87
2021/01/06 06:54:06;;;;;;;12.93;8.70;;;2.40;99.90;;;;;;5035174;28;20207;-84
2021/01/06 06:56:39;;;;;;;9.98;7.28;;;2.30;99.90;;;;;;5035023;28;20202;-87
2021/01/06 06:59:11;;;;;;;14.07;9.13;;;2.40;99.90;;;;;;5033631;28;20231;-84
2021/01/06 07:01:40;;;;;;;11.10;7.82;;;2.30;99.90;;;;;;5034849;28;20306;-84
2021/01/06 07:04:18;;;;;;;14.55;8.38;;;2.40;99.90;;;;;;5034364;28;20290;-88
2021/01/06 07:06:53;;;;;;;14.43;9.05;;;2.30;99.90;;;;;;5049914;28;20202;-84
2021/01/06 07:09:22;;;;;;;13.05;8.45;;;2.20;99.90;;;;;;5039282;28;20294;-87
2021/01/06 07:11:50;;;;;;;14.50;8.63;;;2.30;99.90;;;;;;5042161;28;20274;-81
2021/01/06 07:14:22;;;;;;;13.73;8.43;;;2.30;99.90;;;;;;5050933;28;20230;-81
2021/01/06 07:17:00;;;;;;;15.50;8.80;;;2.10;99.90;;;;;;5054093;28;20217;-84
2021/01/06 07:19:29;;;;;;;12.25;8.30;;;2.10;99.90;;;;;;5044022;28;20272;-86
2021/01/06 07:22:08;;;;;;;11.27;7.50;;;2.20;99.90;;;;;;5033128;28;20277;-86
2021/01/06 07:24:35;;;;;;;12.30;7.47;;;2.20;99.90;;;;;;5035175;28;20289;-85
2021/01/06 07:27:04;;;;;;;14.32;7.35;;;2.20;99.90;;;;;;5034634;28;20293;-85
2021/01/06 07:29:44;;;;;;;11.07;7.35;;;2.30;99.90;;;;;;5033664;28;20639;-84
2021/01/06 07:32:12;;;;;;;11.45;7.38;;;2.40;99.90;;;;;;5034904;28;20214;-86
2021/01/06 07:34:44;;;;;;;14.85;8.18;;;2.30;99.90;;;;;;5033091;28;20273;-87
2021/01/06 07:37:34;;;;;;;8.23;6.80;;;2.30;99.90;;;;;;5034588;28;20249;-87
2021/01/06 07:40:04;;;;;;;10.98;8.18;;;2.30;99.90;;;;;;5034423;28;20242;-87
2021/01/06 07:42:37;;;;;;;14.52;7.00;;;2.30;99.90;;;;;;5034646;28;20749;-87
2021/01/06 07:45:34;;;;;;;9.85;6.68;;;2.10;99.90;;;;;;5033113;28;20277;-87
2021/01/06 07:48:21;;;;;;;9.65;7.60;;;2.10;99.90;;;;;;5034139;28;20291;-83
2021/01/06 07:50:56;;;;;;;35.03;23.75;;;2.20;99.90;;;;;;5033978;28;20202;-84
2021/01/06 07:53:27;;;;;;;20.65;10.85;;;2.20;99.90;;;;;;5033777;28;20209;-85
2021/01/06 07:55:58;;;;;;;14.65;6.97;;;2.30;99.90;;;;;;5034139;28;20225;-85
2021/01/06 07:58:32;;;;;;;12.60;8.75;;;2.30;99.90;;;;;;5032440;28;20690;-83
2021/01/06 08:01:03;;;;;;;10.98;7.93;;;2.30;99.90;;;;;;5033700;28;20702;-85
2021/01/06 08:03:42;;;;;;;14.85;8.73;;;2.30;99.90;;;;;;5032156;28;20210;-83
2021/01/06 08:06:09;;;;;;;10.40;7.65;;;2.30;99.90;;;;;;5033799;28;20328;-84
2021/01/06 08:08:45;;;;;;;13.57;9.70;;;2.20;99.90;;;;;;5033198;28;20203;-80
2021/01/06 08:11:13;;;;;;;9.88;7.03;;;2.20;99.90;;;;;;5033575;28;20209;-82
2021/01/06 08:13:57;;;;;;;13.10;7.60;;;2.20;99.90;;;;;;5032294;28;20241;-82
2021/01/06 08:16:33;;;;;;;9.95;8.25;;;2.20;99.90;;;;;;5033336;28;20207;-81
2021/01/06 08:19:13;;;;;;;13.68;8.80;;;2.20;99.90;;;;;;5033467;28;20240;-81
2021/01/06 08:21:52;;;;;;;8.18;6.32;;;2.20;99.90;;;;;;5033363;28;20293;-83
2021/01/06 08:24:44;;;;;;;11.60;7.70;;;2.20;99.90;;;;;;5031283;28;20640;-81
2021/01/06 08:27:16;;;;;;;11.88;8.05;;;2.20;99.90;;;;;;5033464;28;20541;-81
2021/01/06 08:29:42;;;;;;;18.63;8.27;;;2.20;99.90;;;;;;5032084;28;20724;-82
2021/01/06 08:32:23;;;;;;;13.80;7.30;;;2.30;99.90;;;;;;5032940;28;20764;-83
2021/01/06 08:34:56;;;;;;;11.25;9.13;;;2.20;99.90;;;;;;5031581;28;20740;-83
2021/01/06 08:37:25;;;;;;;9.18;8.00;;;2.20;99.90;;;;;;5030892;28;20215;-81
2021/01/06 08:39:54;;;;;;;11.20;8.23;;;2.20;99.90;;;;;;5032851;28;20234;-82
2021/01/06 08:42:26;;;;;;;9.63;7.35;;;2.30;99.90;;;;;;5033037;28;20238;-83
2021/01/06 08:44:58;;;;;;;10.73;7.60;;;2.30;99.90;;;;;;5031959;28;20207;-83
2021/01/06 08:47:31;;;;;;;16.05;7.45;;;2.10;99.90;;;;;;5033000;28;20290;-84
2021/01/06 08:50:30;;;;;;;14.20;8.88;;;2.00;99.90;;;;;;5032754;28;20297;-84
2021/01/06 08:52:58;;;;;;;12.63;8.52;;;2.00;99.90;;;;;;5032934;28;20293;-87
2021/01/06 08:55:30;;;;;;;12.82;8.73;;;2.10;99.90;;;;;;5032948;28;20285;-84
2021/01/06 08:57:59;;;;;;;13.05;9.30;;;2.20;99.90;;;;;;5033066;28;20605;-85
2021/01/06 09:00:30;;;;;;;12.45;8.65;;;2.30;99.90;;;;;;5032431;28;20325;-87
2021/01/06 09:03:00;;;;;;;12.95;7.35;;;2.30;99.90;;;;;;5032760;28;20217;-87
2021/01/06 09:05:54;;;;;;;13.13;8.40;;;2.30;99.90;;;;;;5031390;28;20210;-84
2021/01/06 09:08:23;;;;;;;9.50;6.90;;;2.40;99.90;;;;;;5032528;28;20214;-82
2021/01/06 09:11:05;;;;;;;10.45;7.57;;;2.40;99.90;;;;;;5032954;28;20203;-82
2021/01/06 09:13:36;;;;;;;13.48;7.43;;;2.50;99.90;;;;;;5031628;28;20203;-89
2021/01/06 09:16:08;;;;;;;11.48;7.90;;;2.50;99.90;;;;;;5032656;28;20662;-82
2021/01/06 09:18:39;;;;;;;12.13;7.47;;;2.40;99.90;;;;;;5032501;28;20313;-84
2021/01/06 09:21:17;;;;;;;10.05;7.32;;;2.40;99.90;;;;;;5032601;28;20242;-83
2021/01/06 09:23:48;;;;;;;14.05;7.75;;;2.30;99.90;;;;;;5032827;28;20205;-86
2021/01/06 09:26:22;;;;;;;10.98;7.53;;;2.20;99.90;;;;;;5032699;28;20285;-87
2021/01/06 09:28:57;;;;;;;12.98;7.97;;;2.20;99.90;;;;;;5031945;28;20696;-83
2021/01/06 09:31:23;;;;;;;12.30;9.40;;;2.30;99.90;;;;;;5033668;28;20281;-84
2021/01/06 09:33:51;;;;;;;11.90;8.23;;;2.20;99.90;;;;;;5031318;28;20207;-85
2021/01/06 09:36:22;;;;;;;11.45;8.35;;;2.20;99.90;;;;;;5032394;28;20663;-84
2021/01/06 09:38:51;;;;;;;17.35;10.20;;;2.10;99.90;;;;;;5033237;28;20270;-90
2021/01/06 09:41:23;;;;;;;12.68;8.73;;;2.10;99.90;;;;;;5032847;28;20210;-89
2021/01/06 09:43:56;;;;;;;13.00;8.70;;;2.10;99.90;;;;;;5033092;28;20244;-86
2021/01/06 09:46:49;;;;;;;14.13;7.55;;;2.00;99.90;;;;;;5036750;28;20690;-89
2021/01/06 09:49:20;;;;;;;11.52;7.18;;;2.10;99.90;;;;;;5036031;28;20297;-85
2021/01/06 09:51:49;;;;;;;12.88;8.70;;;2.30;99.90;;;;;;5036191;28;20762;-87
2021/01/06 09:54:17;;;;;;;10.55;7.25;;;2.10;99.90;;;;;;5036596;28;20293;-88
2021/01/06 09:56:45;;;;;;;11.43;7.15;;;2.30;99.90;;;;;;5036081;28;20249;-84
2021/01/06 09:59:20;;;;;;;13.48;7.93;;;2.20;99.90;;;;;;5034731;28;20321;-85
2021/01/06 10:01:50;;;;;;;16.45;9.23;;;2.20;99.90;;;;;;5035910;28;20230;-83
2021/01/06 10:04:20;;;;;;;10.38;6.57;;;2.10;99.90;;;;;;5035615;28;20207;-83
2021/01/06 10:06:57;;;;;;;13.10;7.30;;;2.30;99.90;;;;;;5035925;28;20725;-84
2021/01/06 10:09:29;;;;;;;11.77;7.25;;;2.30;99.90;;;;;;5035876;28;20297;-83
2021/01/06 10:12:19;;;;;;;11.00;7.40;;;2.40;99.90;;;;;;5035750;28;20289;-82
2021/01/06 10:15:10;;;;;;;10.07;6.40;;;2.10;99.90;;;;;;5034653;28;20250;-82
2021/01/06 10:17:41;;;;;;;8.00;6.50;;;2.30;99.90;;;;;;5035482;28;20266;-82
2021/01/06 10:20:15;;;;;;;10.02;7.32;;;2.20;99.90;;;;;;5035385;28;20325;-83
2021/01/06 10:22:49;;;;;;;9.93;7.03;;;2.10;99.90;;;;;;5035588;28;20253;-82
2021/01/06 10:25:42;;;;;;;16.40;14.65;;;2.20;99.90;;;;;;5035996;28;20289;-83
2021/01/06 10:28:27;;;;;;;11.75;8.20;;;2.20;99.90;;;;;;5034323;28;20638;-80
2021/01/06 10:31:06;;;;;;;9.68;7.90;;;2.30;99.90;;;;;;5035108;28;20217;-81
2021/01/06 10:33:33;;;;;;;8.48;5.97;;;2.30;99.90;;;;;;5033737;28;20205;-80
2021/01/06 10:36:20;;;;;;;11.88;7.85;;;2.20;99.90;;;;;;5034659;28;20238;-78
2021/01/06 10:38:53;;;;;;;10.25;8.32;;;2.20;99.90;;;;;;5034843;28;20226;-81
2021/01/06 10:41:32;;;;;;;8.52;7.07;;;2.30;99.90;;;;;;5035069;28;20282;-79
2021/01/06 10:44:01;;;;;;;11.52;7.45;;;2.40;99.90;;;;;;5033827;28;20206;-79
2021/01/06 10:46:49;;;;;;;11.02;7.22;;;2.40;99.90;;;;;;5034769;28;20648;-78
2021/01/06 10:49:45;;;;;;;12.32;7.68;;;2.30;99.90;;;;;;5034627;28;20290;-81
2021/01/06 10:52:21;;;;;;;9.60;6.80;;;2.20;99.90;;;;;;5034878;28;20199;-78
2021/01/06 10:55:01;;;;;;;9.45;6.65;;;2.20;99.90;;;;;;5034568;28;20297;-78
2021/01/06 10:57:31;;;;;;;11.93;6.80;;;2.20;99.90;;;;;;5034639;28;20301;-78
2021/01/06 11:00:18;;;;;;;12.65;6.97;;;2.20;99.90;;;;;;5033287;28;20235;-78
2021/01/06 11:03:20;;;;;;;10.52;7.82;;;2.30;99.90;;;;;;5034632;28;20576;-80
2021/01/06 11:06:04;;;;;;;14.77;8.70;;;2.40;99.90;;;;;;4993172;28;20271;-80
2021/01/06 11:08:53;;;;;;;11.95;7.18;;;2.20;99.90;;;;;;4995267;28;20582;-79
2021/01/06 11:11:39;;;;;;;10.52;7.60;;;2.20;99.90;;;;;;4995071;28;20227;-80
2021/01/06 11:14:33;;;;;;;7.55;6.07;;;2.30;99.90;;;;;;4993892;28;20656;-82
2021/01/06 11:17:25;;;;;;;11.25;8.80;;;2.20;99.90;;;;;;4995166;28;20208;-83
2021/01/06 11:19:55;;;;;;;13.20;10.23;;;2.40;99.90;;;;;;4994798;28;20271;-85
2021/01/06 11:22:38;;;;;;;18.00;7.70;;;2.40;99.90;;;;;;4995215;28;20675;-82
2021/01/06 11:25:22;;;;;;;9.55;6.82;;;2.60;99.90;;;;;;4994752;28;20270;-80
2021/01/06 11:28:09;;;;;;;9.07;8.15;;;2.50;99.90;;;;;;4994525;28;20287;-80
2021/01/06 11:30:38;;;;;;;15.00;8.75;;;2.40;99.90;;;;;;4994643;28;20224;-81
2021/01/06 11:33:28;;;;;;;12.27;7.55;;;2.60;99.90;;;;;;4995065;28;20211;-81
2021/01/06 11:35:58;;;;;;;16.63;9.75;;;2.70;99.90;;;;;;4992795;28;20334;-80
2021/01/06 11:38:47;;;;;;;12.80;8.35;;;2.60;99.90;;;;;;4994286;28;20212;-81
2021/01/06 11:41:16;;;;;;;10.07;7.75;;;2.60;99.90;;;;;;4994492;28;20560;-79
2021/01/06 11:43:59;;;;;;;10.70;7.43;;;2.60;99.90;;;;;;4993286;28;20215;-80
2021/01/06 11:46:46;;;;;;;14.20;7.82;;;2.70;99.90;;;;;;4994473;28;20562;-82
2021/01/06 11:49:25;;;;;;;10.40;7.65;;;2.80;99.90;;;;;;4994100;28;20645;-81
2021/01/06 11:52:43;;;;;;;10.85;7.65;;;2.80;99.90;;;;;;4994389;28;20660;-79
2021/01/06 11:55:37;;;;;;;11.07;7.82;;;2.50;99.90;;;;;;4994189;28;20204;-78
2021/01/06 11:58:30;;;;;;;13.45;9.43;;;2.60;99.90;;;;;;4992986;28;20212;-78
2021/01/06 12:01:09;;;;;;;9.43;7.30;;;2.60;99.90;;;;;;4957481;28;20233;-79
2021/01/06 12:03:44;;;;;;;12.65;8.52;;;2.50;99.90;;;;;;5000502;28;20306;-78
2021/01/06 12:06:24;;;;;;;12.63;8.75;;;2.40;99.90;;;;;;5033050;28;20289;-78
2021/01/06 12:09:07;;;;;;;13.60;8.45;;;2.40;99.90;;;;;;5040939;28;20218;-79
2021/01/06 12:11:38;;;;;;;10.80;8.48;;;2.30;99.90;;;;;;5041789;28;20302;-79
2021/01/06 12:14:22;;;;;;;9.85;6.93;;;2.40;99.90;;;;;;5038824;28;20289;-84
2021/01/06 12:16:55;;;;;;;9.45;7.38;;;2.30;99.90;;;;;;5034767;28;20207;-83
2021/01/06 12:19:30;;;;;;;12.95;8.43;;;2.40;99.90;;;;;;5033944;28;20321;-86
2021/01/06 12:22:12;;;;;;;12.73;8.00;;;2.40;99.90;;;;;;5033457;28;20293;-88
2021/01/06 12:24:48;;;;;;;10.52;7.20;;;2.20;99.90;;;;;;5034540;28;20230;-91
2021/01/06 12:27:40;;;;;;;7.90;6.63;;;2.40;99.90;;;;;;5033614;28;20203;-87
2021/01/06 12:30:29;;;;;;;8.63;6.25;;;2.40;99.90;;;;;;5031268;28;20285;-86
2021/01/06 12:33:03;;;;;;;10.90;7.70;;;2.40;99.90;;;;;;5032014;28;20685;-84
2021/01/06 12:35:34;;;;;;;10.02;8.90;;;2.30;99.90;;;;;;5032966;28;20203;-83
2021/01/06 12:38:09;;;;;;;10.63;6.45;;;2.30;99.90;;;;;;5033138;28;20207;-83
2021/01/06 12:41:04;;;;;;;10.45;7.10;;;2.30;99.90;;;;;;5033046;28;20234;-84
2021/01/06 12:43:35;;;;;;;12.43;7.53;;;2.20;99.90;;;;;;5031597;28;20285;-81
2021/01/06 12:46:07;;;;;;;11.38;7.15;;;2.30;99.90;;;;;;5033117;28;20658;-81
2021/01/06 12:48:49;;;;;;;10.45;7.18;;;2.40;99.90;;;;;;5033020;28;20285;-81
2021/01/06 12:51:20;;;;;;;11.85;7.85;;;2.30;99.90;;;;;;5032823;28;20289;-83
2021/01/06 12:53:56;;;;;;;11.18;7.78;;;2.40;99.90;;;;;;5032843;28;20207;-81
2021/01/06 12:56:28;;;;;;;12.20;7.60;;;2.20;99.90;;;;;;5032888;28;20305;-82
2021/01/06 12:59:11;;;;;;;11.48;7.43;;;2.30;99.90;;;;;;5031704;28;20266;-82
2021/01/06 13:01:49;;;;;;;11.18;7.95;;;2.40;99.90;;;;;;5032516;28;20242;-82
2021/01/06 13:04:19;;;;;;;13.20;8.00;;;2.40;99.90;;;;;;5031589;28;20293;-83
2021/01/06 13:06:48;;;;;;;11.20;8.32;;;2.30;99.90;;;;;;5032635;28;20286;-82
2021/01/06 13:09:34;;;;;;;16.02;9.52;;;2.40;99.90;;;;;;5032769;28;20286;-83
2021/01/06 13:12:17;;;;;;;12.48;10.00;;;2.50;99.90;;;;;;5032777;28;20293;-83
2021/01/06 13:14:48;;;;;;;10.20;7.03;;;2.50;99.90;;;;;;5031500;28;20305;-84
2021/01/06 13:17:26;;;;;;;12.40;6.75;;;2.40;99.90;;;;;;5032420;28;20211;-83
2021/01/06 13:20:36;;;;;;;11.38;7.55;;;2.40;99.90;;;;;;5035848;28;20240;-81